sensor_id;sensor_type;location;lat;lon;timestamp;temperature;humidity
47961;DHT22;33721;48.852;9.936;2022-09-30T00:01:29;6.20;99.90
47961;DHT22;33721;48.852;9.936;2022-09-30T00:03:56;6.10;99.90
47961;DHT22;33721;48.852;9.936;2022-09-30T00:06:23;6.00;99.90
47961;DHT22;33721;48.852;9.936;2022-09-30T00:08:48;6.00;99.90
47961;DHT22;33721;48.852;9.936;2022-09-30T00:11:19;5.90;99.90
47961;DHT22;33721;48.852;9.936;2022-09-30T00:13:48;6.00;99.90
47961;DHT22;33721;48.852;9.936;2022-09-30T00:16:15;6.10;99.90
47961;DHT22;33721;48.852;9.936;2022-09-30T00:18:43;6.00;99.90
47961;DHT22;33721;48.852;9.936;2022-09-30T00:21:10;6.00;99.90
47961;DHT22;33721;48.852;9.936;2022-09-30T00:23:36;6.00;99.90
47961;DHT22;33721;48.852;9.936;2022-09-30T00:26:05;6.10;99.90
47961;DHT22;33721;48.852;9.936;2022-09-30T00:28:32;6.00;99.90
47961;DHT22;33721;48.852;9.936;2022-09-30T00:30:59;6.00;99.90
47961;DHT22;33721;48.852;9.936;2022-09-30T00:33:25;5.90;99.90
47961;DHT22;33721;48.852;9.936;2022-09-30T00:35:51;5.80;99.90
47961;DHT22;33721;48.852;9.936;2022-09-30T00:38:17;5.80;99.90
47961;DHT22;33721;48.852;9.936;2022-09-30T00:40:42;5.80;99.90
47961;DHT22;33721;48.852;9.936;2022-09-30T00:43:14;5.70;99.90
47961;DHT22;33721;48.852;9.936;2022-09-30T00:45:48;5.70;99.90
47961;DHT22;33721;48.852;9.936;2022-09-30T00:48:29;5.80;99.90
47961;DHT22;33721;48.852;9.936;2022-09-30T00:50:58;5.80;99.90
47961;DHT22;33721;48.852;9.936;2022-09-30T00:53:56;5.80;99.90
47961;DHT22;33721;48.852;9.936;2022-09-30T00:56:28;5.80;99.90
47961;DHT22;33721;48.852;9.936;2022-09-30T01:01:26;5.70;99.90
47961;DHT22;33721;48.852;9.936;2022-09-30T01:03:58;5.70;99.90
47961;DHT22;33721;48.852;9.936;2022-09-30T01:06:24;5.70;99.90
47961;DHT22;33721;48.852;9.936;2022-09-30T01:08:51;5.60;99.90
47961;DHT22;33721;48.852;9.936;2022-09-30T01:11:17;5.60;99.90
47961;DHT22;33721;48.852;9.936;2022-09-30T01:13:46;5.60;99.90
47961;DHT22;33721;48.852;9.936;2022-09-30T01:25:52;5.60;99.90
47961;DHT22;33721;48.852;9.936;2022-09-30T01:39:36;5.20;99.90
47961;DHT22;33721;48.852;9.936;2022-09-30T01:47:26;5.20;99.90
47961;DHT22;33721;48.852;9.936;2022-09-30T01:52:55;5.20;99.90
47961;DHT22;33721;48.852;9.936;2022-09-30T02:00:30;5.10;99.90
47961;DHT22;33721;48.852;9.936;2022-09-30T02:03:06;5.10;99.90
47961;DHT22;33721;48.852;9.936;2022-09-30T02:05:38;5.00;99.90
47961;DHT22;33721;48.852;9.936;2022-09-30T02:11:42;5.10;99.90
47961;DHT22;33721;48.852;9.936;2022-09-30T02:14:40;5.10;99.90
47961;DHT22;33721;48.852;9.936;2022-09-30T02:17:23;5.00;99.90
47961;DHT22;33721;48.852;9.936;2022-09-30T02:20:00;4.90;99.90
47961;DHT22;33721;48.852;9.936;2022-09-30T02:22:48;4.90;99.90
47961;DHT22;33721;48.852;9.936;2022-09-30T02:25:47;4.80;99.90
47961;DHT22;33721;48.852;9.936;2022-09-30T02:28:20;4.80;99.90
47961;DHT22;33721;48.852;9.936;2022-09-30T02:30:49;4.70;99.90
47961;DHT22;33721;48.852;9.936;2022-09-30T02:33:22;4.70;99.90
47961;DHT22;33721;48.852;9.936;2022-09-30T02:35:55;4.70;99.90
47961;DHT22;33721;48.852;9.936;2022-09-30T02:38:27;4.70;99.90
47961;DHT22;33721;48.852;9.936;2022-09-30T02:40:55;4.60;99.90
47961;DHT22;33721;48.852;9.936;2022-09-30T02:43:23;4.50;99.90
47961;DHT22;33721;48.852;9.936;2022-09-30T02:46:09;4.50;99.90
47961;DHT22;33721;48.852;9.936;2022-09-30T02:53:50;4.80;99.90
47961;DHT22;33721;48.852;9.936;2022-09-30T02:59:13;4.80;99.90
47961;DHT22;33721;48.852;9.936;2022-09-30T03:01:39;4.80;99.90
47961;DHT22;33721;48.852;9.936;2022-09-30T03:04:09;4.70;99.90
47961;DHT22;33721;48.852;9.936;2022-09-30T03:06:35;4.70;99.90
47961;DHT22;33721;48.852;9.936;2022-09-30T03:09:02;4.50;99.90
47961;DHT22;33721;48.852;9.936;2022-09-30T03:11:29;4.50;99.90
47961;DHT22;33721;48.852;9.936;2022-09-30T03:17:15;4.60;99.90
47961;DHT22;33721;48.852;9.936;2022-09-30T03:20:18;4.50;99.90
47961;DHT22;33721;48.852;9.936;2022-09-30T03:23:14;4.50;99.90
47961;DHT22;33721;48.852;9.936;2022-09-30T03:26:20;4.50;99.90
47961;DHT22;33721;48.852;9.936;2022-09-30T03:29:03;4.50;99.90
47961;DHT22;33721;48.852;9.936;2022-09-30T03:31:39;4.50;99.90
47961;DHT22;33721;48.852;9.936;2022-09-30T03:34:21;4.50;99.90
47961;DHT22;33721;48.852;9.936;2022-09-30T03:39:50;4.50;99.90
47961;DHT22;33721;48.852;9.936;2022-09-30T03:42:23;4.50;99.90
47961;DHT22;33721;48.852;9.936;2022-09-30T03:45:01;4.60;99.90
47961;DHT22;33721;48.852;9.936;2022-09-30T03:47:30;4.50;99.90
47961;DHT22;33721;48.852;9.936;2022-09-30T03:49:59;4.60;99.90
47961;DHT22;33721;48.852;9.936;2022-09-30T03:52:29;4.60;99.90
47961;DHT22;33721;48.852;9.936;2022-09-30T03:54:58;4.50;99.90
47961;DHT22;33721;48.852;9.936;2022-09-30T03:57:27;4.60;99.90
47961;DHT22;33721;48.852;9.936;2022-09-30T03:59:54;4.60;99.90
47961;DHT22;33721;48.852;9.936;2022-09-30T04:02:20;4.50;99.90
47961;DHT22;33721;48.852;9.936;2022-09-30T04:04:45;4.40;99.90
47961;DHT22;33721;48.852;9.936;2022-09-30T04:07:11;4.30;99.90
47961;DHT22;33721;48.852;9.936;2022-09-30T04:09:38;4.30;99.90
47961;DHT22;33721;48.852;9.936;2022-09-30T04:12:04;4.30;99.90
47961;DHT22;33721;48.852;9.936;2022-09-30T04:14:30;4.30;99.90
47961;DHT22;33721;48.852;9.936;2022-09-30T04:16:56;4.20;99.90
47961;DHT22;33721;48.852;9.936;2022-09-30T04:19:22;4.20;99.90
47961;DHT22;33721;48.852;9.936;2022-09-30T04:21:53;4.20;99.90
47961;DHT22;33721;48.852;9.936;2022-09-30T04:24:22;4.20;99.90
47961;DHT22;33721;48.852;9.936;2022-09-30T04:26:48;4.20;99.90
47961;DHT22;33721;48.852;9.936;2022-09-30T04:29:14;4.30;99.90
47961;DHT22;33721;48.852;9.936;2022-09-30T04:31:40;4.30;99.90
47961;DHT22;33721;48.852;9.936;2022-09-30T04:34:06;4.40;99.90
47961;DHT22;33721;48.852;9.936;2022-09-30T04:36:32;4.40;99.90
47961;DHT22;33721;48.852;9.936;2022-09-30T04:38:58;4.30;99.90
47961;DHT22;33721;48.852;9.936;2022-09-30T04:41:23;4.30;99.90
47961;DHT22;33721;48.852;9.936;2022-09-30T04:43:49;4.20;99.90
47961;DHT22;33721;48.852;9.936;2022-09-30T04:46:16;4.20;99.90
47961;DHT22;33721;48.852;9.936;2022-09-30T04:48:46;4.30;99.90
47961;DHT22;33721;48.852;9.936;2022-09-30T04:51:17;4.30;99.90
47961;DHT22;33721;48.852;9.936;2022-09-30T04:53:43;4.30;99.90
47961;DHT22;33721;48.852;9.936;2022-09-30T04:56:09;4.40;99.90
47961;DHT22;33721;48.852;9.936;2022-09-30T04:58:35;4.40;99.90
47961;DHT22;33721;48.852;9.936;2022-09-30T05:01:06;4.40;99.90
47961;DHT22;33721;48.852;9.936;2022-09-30T05:03:32;4.40;99.90
47961;DHT22;33721;48.852;9.936;2022-09-30T05:05:59;4.30;99.90
47961;DHT22;33721;48.852;9.936;2022-09-30T05:08:25;4.20;99.90
47961;DHT22;33721;48.852;9.936;2022-09-30T05:10:54;4.20;99.90
47961;DHT22;33721;48.852;9.936;2022-09-30T05:13:22;4.20;99.90
47961;DHT22;33721;48.852;9.936;2022-09-30T05:15:48;4.10;99.90
47961;DHT22;33721;48.852;9.936;2022-09-30T05:18:14;4.20;99.90
47961;DHT22;33721;48.852;9.936;2022-09-30T05:20:41;4.10;99.90
47961;DHT22;33721;48.852;9.936;2022-09-30T05:23:06;4.10;99.90
47961;DHT22;33721;48.852;9.936;2022-09-30T05:25:34;4.20;99.90
47961;DHT22;33721;48.852;9.936;2022-09-30T05:27:59;4.20;99.90
47961;DHT22;33721;48.852;9.936;2022-09-30T05:30:25;4.20;99.90
47961;DHT22;33721;48.852;9.936;2022-09-30T05:32:51;4.20;99.90
47961;DHT22;33721;48.852;9.936;2022-09-30T05:35:16;4.20;99.90
47961;DHT22;33721;48.852;9.936;2022-09-30T05:37:42;4.20;99.90
47961;DHT22;33721;48.852;9.936;2022-09-30T05:40:08;4.10;99.90
47961;DHT22;33721;48.852;9.936;2022-09-30T05:42:34;4.20;99.90
47961;DHT22;33721;48.852;9.936;2022-09-30T05:45:00;4.20;99.90
47961;DHT22;33721;48.852;9.936;2022-09-30T05:47:26;4.30;99.90
47961;DHT22;33721;48.852;9.936;2022-09-30T05:49:51;4.30;99.90
47961;DHT22;33721;48.852;9.936;2022-09-30T05:52:17;4.30;99.90
47961;DHT22;33721;48.852;9.936;2022-09-30T05:54:44;4.20;99.90
47961;DHT22;33721;48.852;9.936;2022-09-30T05:57:09;4.20;99.90
47961;DHT22;33721;48.852;9.936;2022-09-30T05:59:35;4.20;99.90
47961;DHT22;33721;48.852;9.936;2022-09-30T06:02:02;4.20;99.90
47961;DHT22;33721;48.852;9.936;2022-09-30T06:04:28;4.20;99.90
47961;DHT22;33721;48.852;9.936;2022-09-30T06:06:53;4.20;99.90
47961;DHT22;33721;48.852;9.936;2022-09-30T06:09:19;4.20;99.90
47961;DHT22;33721;48.852;9.936;2022-09-30T06:11:45;4.20;99.90
47961;DHT22;33721;48.852;9.936;2022-09-30T06:14:10;4.10;99.90
47961;DHT22;33721;48.852;9.936;2022-09-30T06:16:36;4.20;99.90
47961;DHT22;33721;48.852;9.936;2022-09-30T06:19:01;4.30;99.90
47961;DHT22;33721;48.852;9.936;2022-09-30T06:21:27;4.20;99.90
47961;DHT22;33721;48.852;9.936;2022-09-30T06:23:53;4.20;99.90
47961;DHT22;33721;48.852;9.936;2022-09-30T06:26:19;4.20;99.90
47961;DHT22;33721;48.852;9.936;2022-09-30T06:28:44;4.30;99.90
47961;DHT22;33721;48.852;9.936;2022-09-30T06:31:11;4.40;99.90
47961;DHT22;33721;48.852;9.936;2022-09-30T06:33:37;4.50;99.90
47961;DHT22;33721;48.852;9.936;2022-09-30T06:36:02;4.50;99.90
47961;DHT22;33721;48.852;9.936;2022-09-30T06:38:32;4.50;99.90
47961;DHT22;33721;48.852;9.936;2022-09-30T06:40:59;4.50;99.90
47961;DHT22;33721;48.852;9.936;2022-09-30T06:43:25;4.60;99.90
47961;DHT22;33721;48.852;9.936;2022-09-30T06:45:51;4.70;99.90
47961;DHT22;33721;48.852;9.936;2022-09-30T06:48:17;4.70;99.90
47961;DHT22;33721;48.852;9.936;2022-09-30T06:50:43;4.60;99.90
47961;DHT22;33721;48.852;9.936;2022-09-30T06:53:11;4.70;99.90
47961;DHT22;33721;48.852;9.936;2022-09-30T06:55:37;4.90;99.90
47961;DHT22;33721;48.852;9.936;2022-09-30T06:58:04;5.10;99.90
47961;DHT22;33721;48.852;9.936;2022-09-30T07:00:32;5.20;99.90
47961;DHT22;33721;48.852;9.936;2022-09-30T07:02:58;5.30;99.90
47961;DHT22;33721;48.852;9.936;2022-09-30T07:05:24;5.40;99.90
47961;DHT22;33721;48.852;9.936;2022-09-30T07:07:51;5.40;99.90
47961;DHT22;33721;48.852;9.936;2022-09-30T07:10:18;5.60;99.90
47961;DHT22;33721;48.852;9.936;2022-09-30T07:12:43;5.60;99.90
47961;DHT22;33721;48.852;9.936;2022-09-30T07:15:09;5.60;99.90
47961;DHT22;33721;48.852;9.936;2022-09-30T07:17:35;5.60;99.90
47961;DHT22;33721;48.852;9.936;2022-09-30T07:20:00;5.70;99.90
47961;DHT22;33721;48.852;9.936;2022-09-30T07:22:26;5.90;99.90
47961;DHT22;33721;48.852;9.936;2022-09-30T07:24:53;6.10;99.90
47961;DHT22;33721;48.852;9.936;2022-09-30T07:27:18;6.30;99.90
47961;DHT22;33721;48.852;9.936;2022-09-30T07:29:46;6.50;99.90
47961;DHT22;33721;48.852;9.936;2022-09-30T07:32:12;6.60;99.90
47961;DHT22;33721;48.852;9.936;2022-09-30T07:34:38;6.70;99.90
47961;DHT22;33721;48.852;9.936;2022-09-30T07:37:08;6.90;99.90
47961;DHT22;33721;48.852;9.936;2022-09-30T07:39:35;7.00;99.90
47961;DHT22;33721;48.852;9.936;2022-09-30T07:42:01;7.10;99.90
47961;DHT22;33721;48.852;9.936;2022-09-30T07:44:28;7.10;99.90
47961;DHT22;33721;48.852;9.936;2022-09-30T07:46:54;7.20;99.90
47961;DHT22;33721;48.852;9.936;2022-09-30T07:49:20;7.20;99.90
47961;DHT22;33721;48.852;9.936;2022-09-30T07:51:54;7.20;99.90
47961;DHT22;33721;48.852;9.936;2022-09-30T07:54:21;7.30;99.90
47961;DHT22;33721;48.852;9.936;2022-09-30T07:56:48;7.40;99.90
47961;DHT22;33721;48.852;9.936;2022-09-30T07:59:14;7.40;99.90
47961;DHT22;33721;48.852;9.936;2022-09-30T08:01:40;7.40;99.90
47961;DHT22;33721;48.852;9.936;2022-09-30T08:04:08;7.40;99.90
47961;DHT22;33721;48.852;9.936;2022-09-30T08:06:49;7.50;99.90
47961;DHT22;33721;48.852;9.936;2022-09-30T08:09:18;7.60;99.90
47961;DHT22;33721;48.852;9.936;2022-09-30T08:11:44;7.70;99.90
47961;DHT22;33721;48.852;9.936;2022-09-30T08:14:24;7.90;99.90
47961;DHT22;33721;48.852;9.936;2022-09-30T08:16:51;8.00;99.90
47961;DHT22;33721;48.852;9.936;2022-09-30T08:19:21;8.20;99.90
47961;DHT22;33721;48.852;9.936;2022-09-30T08:21:47;8.30;99.90
47961;DHT22;33721;48.852;9.936;2022-09-30T08:24:13;8.30;99.90
47961;DHT22;33721;48.852;9.936;2022-09-30T08:26:39;8.50;99.90
47961;DHT22;33721;48.852;9.936;2022-09-30T08:29:05;8.60;99.90
47961;DHT22;33721;48.852;9.936;2022-09-30T08:31:31;8.70;99.90
47961;DHT22;33721;48.852;9.936;2022-09-30T08:33:59;8.70;99.90
47961;DHT22;33721;48.852;9.936;2022-09-30T08:36:27;8.80;99.90
47961;DHT22;33721;48.852;9.936;2022-09-30T08:38:53;8.80;99.90
47961;DHT22;33721;48.852;9.936;2022-09-30T08:49:45;9.30;99.90
47961;DHT22;33721;48.852;9.936;2022-09-30T08:52:20;9.40;99.90
47961;DHT22;33721;48.852;9.936;2022-09-30T08:54:52;9.50;99.90
47961;DHT22;33721;48.852;9.936;2022-09-30T08:57:19;9.60;99.90
47961;DHT22;33721;48.852;9.936;2022-09-30T09:02:25;9.90;99.90
47961;DHT22;33721;48.852;9.936;2022-09-30T09:04:58;10.00;99.90
47961;DHT22;33721;48.852;9.936;2022-09-30T09:21:19;10.70;99.90
47961;DHT22;33721;48.852;9.936;2022-09-30T09:23:48;10.90;99.90
47961;DHT22;33721;48.852;9.936;2022-09-30T09:26:15;11.00;99.90
47961;DHT22;33721;48.852;9.936;2022-09-30T09:31:28;11.50;99.90
47961;DHT22;33721;48.852;9.936;2022-09-30T09:33:59;11.40;99.90
47961;DHT22;33721;48.852;9.936;2022-09-30T09:39:44;11.40;99.90
47961;DHT22;33721;48.852;9.936;2022-09-30T09:45:37;11.50;99.90
47961;DHT22;33721;48.852;9.936;2022-09-30T09:48:08;11.70;99.90
47961;DHT22;33721;48.852;9.936;2022-09-30T09:50:48;11.70;99.90
47961;DHT22;33721;48.852;9.936;2022-09-30T09:53:43;11.60;99.90
47961;DHT22;33721;48.852;9.936;2022-09-30T09:56:18;11.80;99.90
47961;DHT22;33721;48.852;9.936;2022-09-30T10:01:43;11.90;99.90
47961;DHT22;33721;48.852;9.936;2022-09-30T10:04:20;11.90;99.90
47961;DHT22;33721;48.852;9.936;2022-09-30T10:07:11;12.10;99.90
47961;DHT22;33721;48.852;9.936;2022-09-30T10:09:39;12.20;99.90
47961;DHT22;33721;48.852;9.936;2022-09-30T10:14:32;12.50;99.90
47961;DHT22;33721;48.852;9.936;2022-09-30T10:17:00;12.60;99.90
47961;DHT22;33721;48.852;9.936;2022-09-30T10:19:28;12.70;99.90
47961;DHT22;33721;48.852;9.936;2022-09-30T10:24:31;12.50;99.90
47961;DHT22;33721;48.852;9.936;2022-09-30T10:26:57;12.50;99.90
47961;DHT22;33721;48.852;9.936;2022-09-30T10:29:29;12.50;99.90
47961;DHT22;33721;48.852;9.936;2022-09-30T10:31:57;12.40;99.90
47961;DHT22;33721;48.852;9.936;2022-09-30T10:34:29;12.50;99.90
47961;DHT22;33721;48.852;9.936;2022-09-30T10:36:59;12.60;99.90
47961;DHT22;33721;48.852;9.936;2022-09-30T10:42:15;12.90;99.90
47961;DHT22;33721;48.852;9.936;2022-09-30T10:44:45;13.00;99.90
47961;DHT22;33721;48.852;9.936;2022-09-30T10:47:20;13.30;99.90
47961;DHT22;33721;48.852;9.936;2022-09-30T10:50:11;13.60;99.90
47961;DHT22;33721;48.852;9.936;2022-09-30T10:52:58;13.50;99.90
47961;DHT22;33721;48.852;9.936;2022-09-30T10:55:31;13.30;99.90
47961;DHT22;33721;48.852;9.936;2022-09-30T10:58:19;13.30;99.90
47961;DHT22;33721;48.852;9.936;2022-09-30T11:00:48;13.20;99.90
47961;DHT22;33721;48.852;9.936;2022-09-30T11:03:17;13.40;99.90
47961;DHT22;33721;48.852;9.936;2022-09-30T11:05:47;13.70;99.90
47961;DHT22;33721;48.852;9.936;2022-09-30T11:08:32;14.00;99.90
47961;DHT22;33721;48.852;9.936;2022-09-30T11:14:24;14.00;99.90
47961;DHT22;33721;48.852;9.936;2022-09-30T11:16:56;14.00;99.90
47961;DHT22;33721;48.852;9.936;2022-09-30T11:19:58;14.00;99.90
47961;DHT22;33721;48.852;9.936;2022-09-30T11:25:03;14.00;99.90
47961;DHT22;33721;48.852;9.936;2022-09-30T11:31:07;14.10;99.90
47961;DHT22;33721;48.852;9.936;2022-09-30T11:33:57;14.00;99.90
47961;DHT22;33721;48.852;9.936;2022-09-30T11:44:35;14.40;99.90
47961;DHT22;33721;48.852;9.936;2022-09-30T11:58:31;16.10;99.90
47961;DHT22;33721;48.852;9.936;2022-09-30T12:01:40;16.40;99.90
47961;DHT22;33721;48.852;9.936;2022-09-30T12:04:28;15.80;99.90
47961;DHT22;33721;48.852;9.936;2022-09-30T12:07:04;15.00;99.90
47961;DHT22;33721;48.852;9.936;2022-09-30T12:12:09;15.00;99.90
47961;DHT22;33721;48.852;9.936;2022-09-30T12:14:41;15.00;99.90
47961;DHT22;33721;48.852;9.936;2022-09-30T12:17:27;15.30;99.90
47961;DHT22;33721;48.852;9.936;2022-09-30T12:20:02;15.50;99.90
47961;DHT22;33721;48.852;9.936;2022-09-30T12:22:35;15.80;99.90
47961;DHT22;33721;48.852;9.936;2022-09-30T12:25:13;16.20;99.90
47961;DHT22;33721;48.852;9.936;2022-09-30T12:27:51;16.00;99.90
47961;DHT22;33721;48.852;9.936;2022-09-30T12:30:20;16.20;99.90
47961;DHT22;33721;48.852;9.936;2022-09-30T12:36:06;16.40;99.90
47961;DHT22;33721;48.852;9.936;2022-09-30T12:49:24;16.30;99.90
47961;DHT22;33721;48.852;9.936;2022-09-30T12:51:59;16.30;99.90
47961;DHT22;33721;48.852;9.936;2022-09-30T12:54:33;16.40;99.90
47961;DHT22;33721;48.852;9.936;2022-09-30T12:57:02;16.40;99.90
47961;DHT22;33721;48.852;9.936;2022-09-30T12:59:51;16.20;99.90
47961;DHT22;33721;48.852;9.936;2022-09-30T13:02:37;16.30;99.90
47961;DHT22;33721;48.852;9.936;2022-09-30T13:08:15;16.50;99.90
47961;DHT22;33721;48.852;9.936;2022-09-30T13:10:56;16.60;99.90
47961;DHT22;33721;48.852;9.936;2022-09-30T13:13:26;16.70;99.90
47961;DHT22;33721;48.852;9.936;2022-09-30T13:15:57;16.70;99.90
47961;DHT22;33721;48.852;9.936;2022-09-30T13:31:29;16.80;99.90
47961;DHT22;33721;48.852;9.936;2022-09-30T13:36:59;17.20;99.90
47961;DHT22;33721;48.852;9.936;2022-09-30T13:39:48;17.10;99.90
47961;DHT22;33721;48.852;9.936;2022-09-30T13:42:20;17.10;99.90
47961;DHT22;33721;48.852;9.936;2022-09-30T13:47:31;17.20;99.90
47961;DHT22;33721;48.852;9.936;2022-09-30T13:50:17;17.30;99.90
47961;DHT22;33721;48.852;9.936;2022-09-30T13:52:48;17.20;99.90
47961;DHT22;33721;48.852;9.936;2022-09-30T13:55:20;17.00;99.90
47961;DHT22;33721;48.852;9.936;2022-09-30T14:00:20;16.90;99.90
47961;DHT22;33721;48.852;9.936;2022-09-30T14:06:01;16.70;99.90
47961;DHT22;33721;48.852;9.936;2022-09-30T14:20:34;17.10;99.90
47961;DHT22;33721;48.852;9.936;2022-09-30T14:22:35;17.20;99.90
47961;DHT22;33721;48.852;9.936;2022-09-30T14:25:02;17.60;99.90
47961;DHT22;33721;48.852;9.936;2022-09-30T14:30:04;17.30;99.90
47961;DHT22;33721;48.852;9.936;2022-09-30T14:32:51;17.40;99.90
47961;DHT22;33721;48.852;9.936;2022-09-30T14:35:22;17.40;99.90
47961;DHT22;33721;48.852;9.936;2022-09-30T14:37:52;17.60;99.90
47961;DHT22;33721;48.852;9.936;2022-09-30T14:40:30;17.70;99.90
47961;DHT22;33721;48.852;9.936;2022-09-30T14:43:01;17.70;99.90
47961;DHT22;33721;48.852;9.936;2022-09-30T14:45:32;17.70;99.90
47961;DHT22;33721;48.852;9.936;2022-09-30T14:48:15;17.40;99.90
47961;DHT22;33721;48.852;9.936;2022-09-30T14:51:01;17.60;99.90
47961;DHT22;33721;48.852;9.936;2022-09-30T14:53:30;17.50;99.90
47961;DHT22;33721;48.852;9.936;2022-09-30T14:55:56;17.30;99.90
47961;DHT22;33721;48.852;9.936;2022-09-30T14:58:30;17.30;99.90
47961;DHT22;33721;48.852;9.936;2022-09-30T15:01:08;17.10;99.90
47961;DHT22;33721;48.852;9.936;2022-09-30T15:03:39;17.00;99.90
47961;DHT22;33721;48.852;9.936;2022-09-30T15:06:20;16.90;99.90
47961;DHT22;33721;48.852;9.936;2022-09-30T15:08:47;17.10;99.90
47961;DHT22;33721;48.852;9.936;2022-09-30T15:11:22;17.30;99.90
47961;DHT22;33721;48.852;9.936;2022-09-30T15:13:58;17.20;99.90
47961;DHT22;33721;48.852;9.936;2022-09-30T15:16:27;16.80;99.90
47961;DHT22;33721;48.852;9.936;2022-09-30T15:18:54;16.90;99.90
47961;DHT22;33721;48.852;9.936;2022-09-30T15:21:21;16.90;99.90
47961;DHT22;33721;48.852;9.936;2022-09-30T15:23:50;16.70;99.90
47961;DHT22;33721;48.852;9.936;2022-09-30T15:26:18;16.50;99.90
47961;DHT22;33721;48.852;9.936;2022-09-30T15:28:45;16.40;99.90
47961;DHT22;33721;48.852;9.936;2022-09-30T15:31:25;16.20;99.90
47961;DHT22;33721;48.852;9.936;2022-09-30T15:34:10;16.00;99.90
47961;DHT22;33721;48.852;9.936;2022-09-30T15:36:38;15.90;99.90
47961;DHT22;33721;48.852;9.936;2022-09-30T15:39:04;15.70;99.90
47961;DHT22;33721;48.852;9.936;2022-09-30T15:41:38;15.80;99.90
47961;DHT22;33721;48.852;9.936;2022-09-30T15:44:17;15.50;99.90
47961;DHT22;33721;48.852;9.936;2022-09-30T15:47:05;15.40;99.90
47961;DHT22;33721;48.852;9.936;2022-09-30T15:52:26;15.00;99.90
47961;DHT22;33721;48.852;9.936;2022-09-30T15:54:53;14.90;99.90
47961;DHT22;33721;48.852;9.936;2022-09-30T15:57:45;14.90;99.90
47961;DHT22;33721;48.852;9.936;2022-09-30T16:00:33;14.70;99.90
47961;DHT22;33721;48.852;9.936;2022-09-30T16:05:44;14.40;99.90
47961;DHT22;33721;48.852;9.936;2022-09-30T16:08:20;14.40;99.90
47961;DHT22;33721;48.852;9.936;2022-09-30T16:10:53;14.40;99.90
47961;DHT22;33721;48.852;9.936;2022-09-30T16:13:25;14.50;99.90
47961;DHT22;33721;48.852;9.936;2022-09-30T16:15:53;14.40;99.90
47961;DHT22;33721;48.852;9.936;2022-09-30T16:18:24;14.30;99.90
47961;DHT22;33721;48.852;9.936;2022-09-30T16:21:01;14.10;99.90
47961;DHT22;33721;48.852;9.936;2022-09-30T16:23:36;13.90;99.90
47961;DHT22;33721;48.852;9.936;2022-09-30T16:26:20;13.60;99.90
47961;DHT22;33721;48.852;9.936;2022-09-30T16:28:49;13.40;99.90
47961;DHT22;33721;48.852;9.936;2022-09-30T16:31:16;13.10;99.90
47961;DHT22;33721;48.852;9.936;2022-09-30T16:33:43;12.80;99.90
47961;DHT22;33721;48.852;9.936;2022-09-30T16:36:09;12.70;99.90
47961;DHT22;33721;48.852;9.936;2022-09-30T16:38:36;12.50;99.90
47961;DHT22;33721;48.852;9.936;2022-09-30T16:41:03;12.40;99.90
47961;DHT22;33721;48.852;9.936;2022-09-30T16:43:29;12.30;99.90
47961;DHT22;33721;48.852;9.936;2022-09-30T16:45:57;12.20;99.90
47961;DHT22;33721;48.852;9.936;2022-09-30T16:48:24;12.20;99.90
47961;DHT22;33721;48.852;9.936;2022-09-30T16:53:28;12.20;99.90
47961;DHT22;33721;48.852;9.936;2022-09-30T16:55:54;12.20;99.90
47961;DHT22;33721;48.852;9.936;2022-09-30T16:58:20;12.20;99.90
47961;DHT22;33721;48.852;9.936;2022-09-30T17:00:46;12.00;99.90
47961;DHT22;33721;48.852;9.936;2022-09-30T17:03:14;11.90;99.90
47961;DHT22;33721;48.852;9.936;2022-09-30T17:05:41;11.80;99.90
47961;DHT22;33721;48.852;9.936;2022-09-30T17:08:10;11.90;99.90
47961;DHT22;33721;48.852;9.936;2022-09-30T17:10:37;11.80;99.90
47961;DHT22;33721;48.852;9.936;2022-09-30T17:13:03;11.60;99.90
47961;DHT22;33721;48.852;9.936;2022-09-30T17:15:31;11.50;99.90
47961;DHT22;33721;48.852;9.936;2022-09-30T17:17:58;11.30;99.90
47961;DHT22;33721;48.852;9.936;2022-09-30T17:20:25;11.40;99.90
47961;DHT22;33721;48.852;9.936;2022-09-30T17:22:51;11.40;99.90
47961;DHT22;33721;48.852;9.936;2022-09-30T17:25:17;11.40;99.90
47961;DHT22;33721;48.852;9.936;2022-09-30T17:27:46;11.30;99.90
47961;DHT22;33721;48.852;9.936;2022-09-30T17:30:13;11.20;99.90
47961;DHT22;33721;48.852;9.936;2022-09-30T17:32:40;11.20;99.90
47961;DHT22;33721;48.852;9.936;2022-09-30T17:35:07;11.00;99.90
47961;DHT22;33721;48.852;9.936;2022-09-30T17:37:33;10.80;99.90
47961;DHT22;33721;48.852;9.936;2022-09-30T17:39:58;10.70;99.90
47961;DHT22;33721;48.852;9.936;2022-09-30T17:42:24;10.70;99.90
47961;DHT22;33721;48.852;9.936;2022-09-30T17:45:09;10.70;99.90
47961;DHT22;33721;48.852;9.936;2022-09-30T17:47:35;10.70;99.90
47961;DHT22;33721;48.852;9.936;2022-09-30T17:50:04;10.80;99.90
47961;DHT22;33721;48.852;9.936;2022-09-30T17:52:30;10.70;99.90
47961;DHT22;33721;48.852;9.936;2022-09-30T17:55:01;10.70;99.90
47961;DHT22;33721;48.852;9.936;2022-09-30T17:57:27;10.70;99.90
47961;DHT22;33721;48.852;9.936;2022-09-30T17:59:53;10.70;99.90
47961;DHT22;33721;48.852;9.936;2022-09-30T18:02:18;10.60;99.90
47961;DHT22;33721;48.852;9.936;2022-09-30T18:04:45;10.60;99.90
47961;DHT22;33721;48.852;9.936;2022-09-30T18:07:11;10.60;99.90
47961;DHT22;33721;48.852;9.936;2022-09-30T18:09:38;10.50;99.90
47961;DHT22;33721;48.852;9.936;2022-09-30T18:12:04;10.50;99.90
47961;DHT22;33721;48.852;9.936;2022-09-30T18:14:32;10.40;99.90
47961;DHT22;33721;48.852;9.936;2022-09-30T18:17:01;10.30;99.90
47961;DHT22;33721;48.852;9.936;2022-09-30T18:19:27;10.20;99.90
47961;DHT22;33721;48.852;9.936;2022-09-30T18:21:53;10.20;99.90
47961;DHT22;33721;48.852;9.936;2022-09-30T18:24:19;10.10;99.90
47961;DHT22;33721;48.852;9.936;2022-09-30T18:27:04;10.10;99.90
47961;DHT22;33721;48.852;9.936;2022-09-30T18:29:30;10.00;99.90
47961;DHT22;33721;48.852;9.936;2022-09-30T18:31:56;9.90;99.90
47961;DHT22;33721;48.852;9.936;2022-09-30T18:34:21;9.80;99.90
47961;DHT22;33721;48.852;9.936;2022-09-30T18:36:47;9.90;99.90
47961;DHT22;33721;48.852;9.936;2022-09-30T18:39:14;9.80;99.90
47961;DHT22;33721;48.852;9.936;2022-09-30T18:41:39;9.60;99.90
47961;DHT22;33721;48.852;9.936;2022-09-30T18:44:08;9.70;99.90
47961;DHT22;33721;48.852;9.936;2022-09-30T18:46:34;9.60;99.90
47961;DHT22;33721;48.852;9.936;2022-09-30T18:49:02;9.50;99.90
47961;DHT22;33721;48.852;9.936;2022-09-30T18:51:28;9.40;99.90
47961;DHT22;33721;48.852;9.936;2022-09-30T18:53:57;9.40;99.90
47961;DHT22;33721;48.852;9.936;2022-09-30T18:56:28;9.30;99.90
47961;DHT22;33721;48.852;9.936;2022-09-30T18:59:00;9.20;99.90
47961;DHT22;33721;48.852;9.936;2022-09-30T19:01:27;9.20;99.90
47961;DHT22;33721;48.852;9.936;2022-09-30T19:03:53;9.30;99.90
47961;DHT22;33721;48.852;9.936;2022-09-30T19:06:19;9.20;99.90
47961;DHT22;33721;48.852;9.936;2022-09-30T19:08:44;9.10;99.90
47961;DHT22;33721;48.852;9.936;2022-09-30T19:11:11;9.20;99.90
47961;DHT22;33721;48.852;9.936;2022-09-30T19:13:45;9.10;99.90
47961;DHT22;33721;48.852;9.936;2022-09-30T19:16:12;9.00;99.90